sensor_id;sensor_type;location;lat;lon;timestamp;pressure;altitude;pressure_sealevel;temperature;humidity
21588;BME280;10956;48.878;13.316;2022-08-07T00:01:25;94903.22;;;14.05;87.05
21588;BME280;10956;48.878;13.316;2022-08-07T00:03:51;94897.13;;;14.00;87.50
21588;BME280;10956;48.878;13.316;2022-08-07T00:06:16;94892.38;;;13.97;87.55
21588;BME280;10956;48.878;13.316;2022-08-07T00:08:42;94901.13;;;13.92;87.67
21588;BME280;10956;48.878;13.316;2022-08-07T00:11:07;94900.34;;;13.92;87.35
21588;BME280;10956;48.878;13.316;2022-08-07T00:13:33;94903.78;;;13.87;87.52
21588;BME280;10956;48.878;13.316;2022-08-07T00:16:02;94901.41;;;13.85;87.49
21588;BME280;10956;48.878;13.316;2022-08-07T00:18:27;94908.03;;;13.83;87.56
21588;BME280;10956;48.878;13.316;2022-08-07T00:20:58;94905.13;;;13.79;87.53
21588;BME280;10956;48.878;13.316;2022-08-07T00:23:24;94911.50;;;13.73;87.88
21588;BME280;10956;48.878;13.316;2022-08-07T00:25:50;94905.66;;;13.71;87.97
21588;BME280;10956;48.878;13.316;2022-08-07T00:28:15;94904.09;;;13.70;87.92
21588;BME280;10956;48.878;13.316;2022-08-07T00:30:41;94908.84;;;13.63;87.15
21588;BME280;10956;48.878;13.316;2022-08-07T00:33:06;94905.69;;;13.61;87.24
21588;BME280;10956;48.878;13.316;2022-08-07T00:35:32;94916.81;;;13.53;87.64
21588;BME280;10956;48.878;13.316;2022-08-07T00:37:59;94916.81;;;13.48;87.88
21588;BME280;10956;48.878;13.316;2022-08-07T00:40:26;94923.44;;;13.45;88.24
21588;BME280;10956;48.878;13.316;2022-08-07T00:42:52;94924.50;;;13.44;88.71
21588;BME280;10956;48.878;13.316;2022-08-07T00:45:17;94934.81;;;13.41;89.13
21588;BME280;10956;48.878;13.316;2022-08-07T00:47:45;94922.13;;;13.38;89.12
21588;BME280;10956;48.878;13.316;2022-08-07T00:50:11;94915.75;;;13.39;89.01
21588;BME280;10956;48.878;13.316;2022-08-07T00:52:36;94918.69;;;13.37;88.76
21588;BME280;10956;48.878;13.316;2022-08-07T00:55:02;94912.59;;;13.32;89.11
21588;BME280;10956;48.878;13.316;2022-08-07T00:57:27;94904.13;;;13.30;89.23
21588;BME280;10956;48.878;13.316;2022-08-07T00:59:53;94905.69;;;13.31;88.94
21588;BME280;10956;48.878;13.316;2022-08-07T01:02:20;94909.94;;;13.32;88.85
21588;BME280;10956;48.878;13.316;2022-08-07T01:04:46;94915.22;;;13.27;88.77
21588;BME280;10956;48.878;13.316;2022-08-07T01:07:11;94903.59;;;13.22;88.95
21588;BME280;10956;48.878;13.316;2022-08-07T01:09:37;94911.00;;;13.25;88.85
21588;BME280;10956;48.878;13.316;2022-08-07T01:12:03;94905.69;;;13.25;88.88
21588;BME280;10956;48.878;13.316;2022-08-07T01:14:29;94902.00;;;13.21;88.96
21588;BME280;10956;48.878;13.316;2022-08-07T01:16:55;94899.88;;;13.23;89.24
21588;BME280;10956;48.878;13.316;2022-08-07T01:19:21;94897.50;;;13.22;88.94
21588;BME280;10956;48.878;13.316;2022-08-07T01:21:49;94890.09;;;13.19;89.27
21588;BME280;10956;48.878;13.316;2022-08-07T01:24:15;94897.72;;;13.15;89.48
21588;BME280;10956;48.878;13.316;2022-08-07T01:26:41;94890.84;;;13.14;89.71
21588;BME280;10956;48.878;13.316;2022-08-07T01:29:08;94898.25;;;13.12;89.92
21588;BME280;10956;48.878;13.316;2022-08-07T01:31:35;94889.25;;;13.13;89.72
21588;BME280;10956;48.878;13.316;2022-08-07T01:34:02;94887.66;;;13.12;89.59
21588;BME280;10956;48.878;13.316;2022-08-07T01:36:28;94894.03;;;13.11;89.51
21588;BME280;10956;48.878;13.316;2022-08-07T01:38:55;94889.25;;;13.13;89.35
21588;BME280;10956;48.878;13.316;2022-08-07T01:41:21;94875.53;;;13.16;89.10
21588;BME280;10956;48.878;13.316;2022-08-07T01:43:48;94871.03;;;13.22;88.62
21588;BME280;10956;48.878;13.316;2022-08-07T01:46:15;94880.28;;;13.24;88.21
21588;BME280;10956;48.878;13.316;2022-08-07T01:48:42;94884.00;;;13.23;87.97
21588;BME280;10956;48.878;13.316;2022-08-07T01:51:10;94877.91;;;13.23;87.74
21588;BME280;10956;48.878;13.316;2022-08-07T01:53:39;94882.41;;;13.22;87.40
21588;BME280;10956;48.878;13.316;2022-08-07T01:56:10;94877.09;;;13.07;88.57
21588;BME280;10956;48.878;13.316;2022-08-07T01:58:42;94873.38;;;12.93;89.47
21588;BME280;10956;48.878;13.316;2022-08-07T02:01:11;94876.28;;;12.91;89.78
21588;BME280;10956;48.878;13.316;2022-08-07T02:03:42;94870.19;;;12.91;89.82
21588;BME280;10956;48.878;13.316;2022-08-07T02:06:12;94873.91;;;12.90;90.07
21588;BME280;10956;48.878;13.316;2022-08-07T02:08:41;94868.09;;;12.93;89.80
21588;BME280;10956;48.878;13.316;2022-08-07T02:11:09;94878.94;;;12.97;89.24
21588;BME280;10956;48.878;13.316;2022-08-07T02:13:36;94880.25;;;12.94;89.20
21588;BME280;10956;48.878;13.316;2022-08-07T02:16:03;94873.91;;;12.90;89.42
21588;BME280;10956;48.878;13.316;2022-08-07T02:18:31;94871.78;;;12.87;89.66
21588;BME280;10956;48.878;13.316;2022-08-07T02:20:59;94873.38;;;12.83;89.68
21588;BME280;10956;48.878;13.316;2022-08-07T02:23:26;94879.19;;;12.80;90.05
21588;BME280;10956;48.878;13.316;2022-08-07T02:25:53;94871.25;;;12.80;90.11
21588;BME280;10956;48.878;13.316;2022-08-07T02:28:20;94869.41;;;12.80;90.24
21588;BME280;10956;48.878;13.316;2022-08-07T02:30:47;94869.66;;;12.79;90.32
21588;BME280;10956;48.878;13.316;2022-08-07T02:33:15;94868.06;;;12.78;90.53
21588;BME280;10956;48.878;13.316;2022-08-07T02:35:41;94871.22;;;12.75;90.56
21588;BME280;10956;48.878;13.316;2022-08-07T02:38:08;94873.34;;;12.73;90.50
21588;BME280;10956;48.878;13.316;2022-08-07T02:40:36;94860.66;;;12.75;90.26
21588;BME280;10956;48.878;13.316;2022-08-07T02:43:02;94857.75;;;12.76;90.01
21588;BME280;10956;48.878;13.316;2022-08-07T02:45:30;94853.78;;;12.69;90.28
21588;BME280;10956;48.878;13.316;2022-08-07T02:47:56;94850.59;;;12.61;90.71
21588;BME280;10956;48.878;13.316;2022-08-07T02:50:21;94850.84;;;12.55;91.43
21588;BME280;10956;48.878;13.316;2022-08-07T02:52:53;94851.09;;;12.53;91.32
21588;BME280;10956;48.878;13.316;2022-08-07T02:55:23;94852.16;;;12.52;91.55
21588;BME280;10956;48.878;13.316;2022-08-07T02:57:51;94853.75;;;12.53;91.71
21588;BME280;10956;48.878;13.316;2022-08-07T03:00:18;94854.25;;;12.50;91.90
21588;BME280;10956;48.878;13.316;2022-08-07T03:02:46;94860.59;;;12.49;92.09
21588;BME280;10956;48.878;13.316;2022-08-07T03:05:13;94850.56;;;12.51;92.16
21588;BME280;10956;48.878;13.316;2022-08-07T03:07:40;94847.66;;;12.48;92.21
21588;BME280;10956;48.878;13.316;2022-08-07T03:10:07;94851.09;;;12.48;92.13
21588;BME280;10956;48.878;13.316;2022-08-07T03:12:34;94846.31;;;12.45;92.03
21588;BME280;10956;48.878;13.316;2022-08-07T03:15:00;94843.69;;;12.45;92.18
21588;BME280;10956;48.878;13.316;2022-08-07T03:17:26;94843.16;;;12.43;92.50
21588;BME280;10956;48.878;13.316;2022-08-07T03:19:53;94838.38;;;12.40;92.75
21588;BME280;10956;48.878;13.316;2022-08-07T03:22:20;94838.38;;;12.40;92.85
21588;BME280;10956;48.878;13.316;2022-08-07T03:24:46;94839.44;;;12.34;93.37
21588;BME280;10956;48.878;13.316;2022-08-07T03:27:12;94830.16;;;12.32;93.51
21588;BME280;10956;48.878;13.316;2022-08-07T03:29:42;94826.72;;;12.31;94.02
21588;BME280;10956;48.878;13.316;2022-08-07T03:32:10;94830.97;;;12.32;93.97
21588;BME280;10956;48.878;13.316;2022-08-07T03:34:37;94830.97;;;12.32;94.13
21588;BME280;10956;48.878;13.316;2022-08-07T03:37:03;94829.91;;;12.28;94.45
21588;BME280;10956;48.878;13.316;2022-08-07T03:39:32;94835.19;;;12.28;94.83
21588;BME280;10956;48.878;13.316;2022-08-07T03:42:04;94824.09;;;12.31;94.77
21588;BME280;10956;48.878;13.316;2022-08-07T03:44:33;94826.47;;;12.33;94.71
21588;BME280;10956;48.878;13.316;2022-08-07T03:47:01;94825.13;;;12.30;95.38
21588;BME280;10956;48.878;13.316;2022-08-07T03:49:27;94815.34;;;12.25;95.64
21588;BME280;10956;48.878;13.316;2022-08-07T03:51:54;94815.63;;;12.24;96.09
21588;BME280;10956;48.878;13.316;2022-08-07T03:54:19;94822.50;;;12.25;96.25
21588;BME280;10956;48.878;13.316;2022-08-07T03:56:45;94813.50;;;12.26;96.41
21588;BME280;10956;48.878;13.316;2022-08-07T03:59:12;94819.84;;;12.30;96.37
21588;BME280;10956;48.878;13.316;2022-08-07T04:01:43;94821.47;;;12.36;96.30
21588;BME280;10956;48.878;13.316;2022-08-07T04:04:10;94837.88;;;12.48;95.75
21588;BME280;10956;48.878;13.316;2022-08-07T04:06:37;94827.56;;;12.57;95.33
21588;BME280;10956;48.878;13.316;2022-08-07T04:09:06;94824.16;;;12.61;95.26
21588;BME280;10956;48.878;13.316;2022-08-07T04:11:32;94825.47;;;12.69;94.95
21588;BME280;10956;48.878;13.316;2022-08-07T04:14:00;94834.75;;;12.72;95.15
21588;BME280;10956;48.878;13.316;2022-08-07T04:16:27;94836.59;;;12.76;94.89
21588;BME280;10956;48.878;13.316;2022-08-07T04:18:53;94833.69;;;12.73;95.20
21588;BME280;10956;48.878;13.316;2022-08-07T04:21:18;94837.13;;;12.73;95.12
21588;BME280;10956;48.878;13.316;2022-08-07T04:23:45;94835.78;;;12.76;94.98
21588;BME280;10956;48.878;13.316;2022-08-07T04:26:11;94835.28;;;12.84;94.54
21588;BME280;10956;48.878;13.316;2022-08-07T04:28:38;94838.97;;;12.88;94.29
21588;BME280;10956;48.878;13.316;2022-08-07T04:31:04;94843.22;;;12.94;93.85
21588;BME280;10956;48.878;13.316;2022-08-07T04:33:29;94844.81;;;13.00;93.46
21588;BME280;10956;48.878;13.316;2022-08-07T04:35:55;94838.97;;;13.08;93.09
21588;BME280;10956;48.878;13.316;2022-08-07T04:38:21;94835.53;;;13.13;92.71
21588;BME280;10956;48.878;13.316;2022-08-07T04:40:49;94843.78;;;13.21;92.36
21588;BME280;10956;48.878;13.316;2022-08-07T04:43:16;94833.44;;;13.25;92.11
21588;BME280;10956;48.878;13.316;2022-08-07T04:48:54;94835.81;;;13.37;91.48
21588;BME280;10956;48.878;13.316;2022-08-07T04:51:52;94842.16;;;13.41;91.33
21588;BME280;10956;48.878;13.316;2022-08-07T04:59:38;94835.00;;;13.56;90.47
21588;BME280;10956;48.878;13.316;2022-08-07T05:02:17;94830.19;;;13.64;90.00
21588;BME280;10956;48.878;13.316;2022-08-07T05:07:47;94835.94;;;13.91;88.01
21588;BME280;10956;48.878;13.316;2022-08-07T05:10:22;94836.94;;;14.05;87.44
21588;BME280;10956;48.878;13.316;2022-08-07T05:13:01;94832.94;;;14.13;86.10
21588;BME280;10956;48.878;13.316;2022-08-07T05:15:32;94821.78;;;14.21;85.59
21588;BME280;10956;48.878;13.316;2022-08-07T05:18:07;94840.84;;;14.28;85.21
21588;BME280;10956;48.878;13.316;2022-08-07T05:20:37;94841.31;;;14.35;84.68
21588;BME280;10956;48.878;13.316;2022-08-07T05:23:25;94844.50;;;14.37;84.20
21588;BME280;10956;48.878;13.316;2022-08-07T05:25:53;94842.88;;;14.41;84.14
21588;BME280;10956;48.878;13.316;2022-08-07T05:28:20;94845.53;;;14.41;84.16
21588;BME280;10956;48.878;13.316;2022-08-07T05:30:46;94840.78;;;14.43;83.83
21588;BME280;10956;48.878;13.316;2022-08-07T05:33:12;94847.09;;;14.52;83.62
21588;BME280;10956;48.878;13.316;2022-08-07T05:35:40;94841.25;;;14.56;82.61
21588;BME280;10956;48.878;13.316;2022-08-07T05:38:07;94840.94;;;14.62;81.33
21588;BME280;10956;48.878;13.316;2022-08-07T05:40:35;94850.69;;;14.72;81.67
21588;BME280;10956;48.878;13.316;2022-08-07T05:43:02;94850.94;;;14.75;81.37
21588;BME280;10956;48.878;13.316;2022-08-07T05:45:27;94845.84;;;14.84;80.82
21588;BME280;10956;48.878;13.316;2022-08-07T05:47:54;94852.19;;;14.88;79.77
21588;BME280;10956;48.878;13.316;2022-08-07T05:50:20;94848.47;;;14.89;79.36
21588;BME280;10956;48.878;13.316;2022-08-07T05:52:46;94856.34;;;14.99;79.04
21588;BME280;10956;48.878;13.316;2022-08-07T05:55:12;94864.81;;;15.01;78.47
21588;BME280;10956;48.878;13.316;2022-08-07T05:57:39;94858.41;;;15.07;77.81
21588;BME280;10956;48.878;13.316;2022-08-07T06:00:06;94860.50;;;15.10;77.50
21588;BME280;10956;48.878;13.316;2022-08-07T06:02:35;94854.06;;;15.22;77.31
21588;BME280;10956;48.878;13.316;2022-08-07T06:05:06;94855.63;;;15.23;76.25
21588;BME280;10956;48.878;13.316;2022-08-07T06:07:33;94854.53;;;15.29;76.40
21588;BME280;10956;48.878;13.316;2022-08-07T06:10:00;94856.09;;;15.30;74.99
21588;BME280;10956;48.878;13.316;2022-08-07T06:12:26;94850.25;;;15.33;74.94
21588;BME280;10956;48.878;13.316;2022-08-07T06:14:52;94851.88;;;15.29;74.27
21588;BME280;10956;48.878;13.316;2022-08-07T06:17:19;94845.94;;;15.37;74.47
21588;BME280;10956;48.878;13.316;2022-08-07T06:19:46;94841.09;;;15.44;73.84
21588;BME280;10956;48.878;13.316;2022-08-07T06:22:12;94848.56;;;15.42;72.83
21588;BME280;10956;48.878;13.316;2022-08-07T06:24:37;94844.03;;;15.42;71.67
21588;BME280;10956;48.878;13.316;2022-08-07T06:27:03;94846.09;;;15.50;71.75
21588;BME280;10956;48.878;13.316;2022-08-07T06:29:29;94847.41;;;15.53;71.64
21588;BME280;10956;48.878;13.316;2022-08-07T06:31:55;94842.84;;;15.59;71.34
21588;BME280;10956;48.878;13.316;2022-08-07T06:34:24;94848.41;;;15.62;70.84
21588;BME280;10956;48.878;13.316;2022-08-07T06:36:50;94847.28;;;15.68;70.94
21588;BME280;10956;48.878;13.316;2022-08-07T06:39:15;94838.47;;;15.73;70.59
21588;BME280;10956;48.878;13.316;2022-08-07T06:41:44;94836.53;;;15.78;70.87
21588;BME280;10956;48.878;13.316;2022-08-07T06:44:11;94840.94;;;15.88;70.86
21588;BME280;10956;48.878;13.316;2022-08-07T06:46:39;94851.25;;;15.95;70.49
21588;BME280;10956;48.878;13.316;2022-08-07T06:49:05;94841.34;;;16.00;70.49
21588;BME280;10956;48.878;13.316;2022-08-07T06:51:32;94846.59;;;16.05;70.15
21588;BME280;10956;48.878;13.316;2022-08-07T06:54:00;94850.78;;;16.11;70.04
21588;BME280;10956;48.878;13.316;2022-08-07T06:56:29;94836.06;;;16.19;69.95
21588;BME280;10956;48.878;13.316;2022-08-07T06:59:10;94831.19;;;16.26;69.89
21588;BME280;10956;48.878;13.316;2022-08-07T07:01:37;94838.03;;;16.32;69.73
21588;BME280;10956;48.878;13.316;2022-08-07T07:04:04;94839.56;;;16.38;69.78
21588;BME280;10956;48.878;13.316;2022-08-07T07:06:31;94840.78;;;16.46;69.48
21588;BME280;10956;48.878;13.316;2022-08-07T07:09:15;94834.91;;;16.49;68.26
21588;BME280;10956;48.878;13.316;2022-08-07T07:12:03;94841.66;;;16.60;68.43
21588;BME280;10956;48.878;13.316;2022-08-07T07:17:38;94837.00;;;16.71;68.19
21588;BME280;10956;48.878;13.316;2022-08-07T07:20:10;94827.88;;;16.77;68.58
21588;BME280;10956;48.878;13.316;2022-08-07T07:22:37;94840.63;;;16.80;68.64
21588;BME280;10956;48.878;13.316;2022-08-07T07:25:05;94841.25;;;16.91;68.03
21588;BME280;10956;48.878;13.316;2022-08-07T07:27:34;94844.63;;;16.96;67.80
21588;BME280;10956;48.878;13.316;2022-08-07T07:30:04;94833.81;;;17.06;67.65
21588;BME280;10956;48.878;13.316;2022-08-07T07:32:32;94847.84;;;17.12;67.48
21588;BME280;10956;48.878;13.316;2022-08-07T07:35:03;94841.22;;;17.09;66.27
21588;BME280;10956;48.878;13.316;2022-08-07T07:37:32;94833.16;;;17.15;66.61
21588;BME280;10956;48.878;13.316;2022-08-07T07:40:04;94834.66;;;17.21;66.24
21588;BME280;10956;48.878;13.316;2022-08-07T07:42:32;94828.16;;;17.27;66.11
21588;BME280;10956;48.878;13.316;2022-08-07T07:45:03;94842.00;;;17.29;65.62
21588;BME280;10956;48.878;13.316;2022-08-07T07:47:31;94839.81;;;17.31;65.46
21588;BME280;10956;48.878;13.316;2022-08-07T07:49:59;94837.66;;;17.33;65.19
21588;BME280;10956;48.878;13.316;2022-08-07T07:52:25;94843.56;;;17.30;64.48
21588;BME280;10956;48.878;13.316;2022-08-07T07:54:53;94835.06;;;17.28;64.58
21588;BME280;10956;48.878;13.316;2022-08-07T07:57:21;94835.06;;;17.28;63.95
21588;BME280;10956;48.878;13.316;2022-08-07T07:59:49;94836.44;;;17.25;64.40
21588;BME280;10956;48.878;13.316;2022-08-07T08:02:17;94840.41;;;17.28;64.15
21588;BME280;10956;48.878;13.316;2022-08-07T08:04:44;94834.28;;;17.27;64.59
21588;BME280;10956;48.878;13.316;2022-08-07T08:07:12;94831.75;;;17.36;64.44
21588;BME280;10956;48.878;13.316;2022-08-07T08:09:38;94830.50;;;17.47;64.63
21588;BME280;10956;48.878;13.316;2022-08-07T08:12:05;94826.66;;;17.53;65.26
21588;BME280;10956;48.878;13.316;2022-08-07T08:14:32;94829.72;;;17.60;65.75
21588;BME280;10956;48.878;13.316;2022-08-07T08:17:00;94834.69;;;17.67;65.76
21588;BME280;10956;48.878;13.316;2022-08-07T08:19:28;94836.56;;;17.66;66.19
21588;BME280;10956;48.878;13.316;2022-08-07T08:21:55;94830.66;;;17.69;66.53
21588;BME280;10956;48.878;13.316;2022-08-07T08:24:45;94824.72;;;17.72;65.92
21588;BME280;10956;48.878;13.316;2022-08-07T08:27:35;94822.56;;;17.74;65.99
21588;BME280;10956;48.878;13.316;2022-08-07T08:30:04;94826.31;;;17.73;65.89
21588;BME280;10956;48.878;13.316;2022-08-07T08:32:31;94830.66;;;17.83;66.56
21588;BME280;10956;48.878;13.316;2022-08-07T08:34:58;94834.81;;;17.89;66.13
21588;BME280;10956;48.878;13.316;2022-08-07T08:37:28;94827.31;;;17.91;65.79
21588;BME280;10956;48.878;13.316;2022-08-07T08:39:56;94825.84;;;17.99;66.01
21588;BME280;10956;48.878;13.316;2022-08-07T08:42:37;94823.75;;;17.96;66.12
21588;BME280;10956;48.878;13.316;2022-08-07T08:45:33;94824.56;;;17.96;64.55
21588;BME280;10956;48.878;13.316;2022-08-07T08:48:07;94819.31;;;18.05;65.42
21588;BME280;10956;48.878;13.316;2022-08-07T08:50:39;94815.06;;;18.04;63.46
21588;BME280;10956;48.878;13.316;2022-08-07T08:53:11;94821.38;;;18.08;65.12
21588;BME280;10956;48.878;13.316;2022-08-07T08:56:02;94827.22;;;18.10;64.59
21588;BME280;10956;48.878;13.316;2022-08-07T08:58:34;94819.09;;;18.15;63.90
21588;BME280;10956;48.878;13.316;2022-08-07T09:01:12;94829.69;;;18.20;63.44
21588;BME280;10956;48.878;13.316;2022-08-07T09:03:58;94822.75;;;18.19;63.08
21588;BME280;10956;48.878;13.316;2022-08-07T09:06:46;94828.50;;;18.26;63.00
21588;BME280;10956;48.878;13.316;2022-08-07T09:09:38;94817.22;;;18.29;62.65
21588;BME280;10956;48.878;13.316;2022-08-07T09:12:16;94809.09;;;18.34;62.42
21588;BME280;10956;48.878;13.316;2022-08-07T09:18:27;94814.94;;;18.36;61.99
21588;BME280;10956;48.878;13.316;2022-08-07T09:29:15;94807.59;;;18.56;62.23
21588;BME280;10956;48.878;13.316;2022-08-07T09:31:53;94805.91;;;18.60;61.52
21588;BME280;10956;48.878;13.316;2022-08-07T09:34:20;94803.75;;;18.62;61.89
21588;BME280;10956;48.878;13.316;2022-08-07T09:36:59;94803.81;;;18.70;61.83
21588;BME280;10956;48.878;13.316;2022-08-07T09:39:44;94804.31;;;18.73;60.46
21588;BME280;10956;48.878;13.316;2022-08-07T09:42:29;94798.53;;;18.79;60.66
21588;BME280;10956;48.878;13.316;2022-08-07T09:45:11;94800.50;;;18.87;60.40
21588;BME280;10956;48.878;13.316;2022-08-07T09:53:02;94792.38;;;18.92;61.09
21588;BME280;10956;48.878;13.316;2022-08-07T09:55:47;94795.28;;;19.04;61.47
21588;BME280;10956;48.878;13.316;2022-08-07T09:58:44;94789.31;;;19.08;60.39
21588;BME280;10956;48.878;13.316;2022-08-07T10:04:06;94788.28;;;19.17;59.72
21588;BME280;10956;48.878;13.316;2022-08-07T10:12:28;94778.56;;;19.21;59.85
21588;BME280;10956;48.878;13.316;2022-08-07T10:20:38;94769.25;;;19.41;59.50
21588;BME280;10956;48.878;13.316;2022-08-07T10:23:14;94765.00;;;19.40;59.23
21588;BME280;10956;48.878;13.316;2022-08-07T10:28:49;94761.03;;;19.60;60.78
21588;BME280;10956;48.878;13.316;2022-08-07T10:34:29;94749.69;;;19.54;58.85
21588;BME280;10956;48.878;13.316;2022-08-07T10:42:30;94749.06;;;19.57;58.01
21588;BME280;10956;48.878;13.316;2022-08-07T10:47:46;94738.28;;;19.71;58.74
21588;BME280;10956;48.878;13.316;2022-08-07T10:50:21;94740.19;;;19.79;58.92
21588;BME280;10956;48.878;13.316;2022-08-07T10:53:09;94746.16;;;19.76;58.59
21588;BME280;10956;48.878;13.316;2022-08-07T10:58:58;94735.97;;;19.87;61.01
21588;BME280;10956;48.878;13.316;2022-08-07T11:01:47;94737.72;;;19.91;61.29
21588;BME280;10956;48.878;13.316;2022-08-07T11:10:03;94730.94;;;19.94;60.31
21588;BME280;10956;48.878;13.316;2022-08-07T11:12:39;94728.75;;;19.96;60.56
21588;BME280;10956;48.878;13.316;2022-08-07T11:15:11;94730.31;;;19.97;60.15
21588;BME280;10956;48.878;13.316;2022-08-07T11:20:21;94714.44;;;20.00;60.35
21588;BME280;10956;48.878;13.316;2022-08-07T11:25:35;94715.56;;;20.08;61.79
21588;BME280;10956;48.878;13.316;2022-08-07T11:28:33;94713.34;;;20.10;62.38
21588;BME280;10956;48.878;13.316;2022-08-07T11:31:27;94710.53;;;20.15;62.13
21588;BME280;10956;48.878;13.316;2022-08-07T11:45:25;94709.00;;;20.49;62.89
21588;BME280;10956;48.878;13.316;2022-08-07T11:48:12;94697.81;;;20.55;62.67
21588;BME280;10956;48.878;13.316;2022-08-07T12:07:24;94693.72;;;20.67;62.38
21588;BME280;10956;48.878;13.316;2022-08-07T12:10:21;94697.03;;;20.72;62.49
21588;BME280;10956;48.878;13.316;2022-08-07T12:12:56;94696.53;;;20.79;62.60
21588;BME280;10956;48.878;13.316;2022-08-07T12:15:29;94685.66;;;20.84;61.93
21588;BME280;10956;48.878;13.316;2022-08-07T12:18:13;94678.25;;;20.89;63.13
21588;BME280;10956;48.878;13.316;2022-08-07T12:26:46;94670.00;;;21.12;61.78
21588;BME280;10956;48.878;13.316;2022-08-07T12:29:25;94666.03;;;21.18;61.58
21588;BME280;10956;48.878;13.316;2022-08-07T12:32:13;94674.53;;;21.20;61.91
21588;BME280;10956;48.878;13.316;2022-08-07T12:34:40;94671.41;;;21.18;61.01
21588;BME280;10956;48.878;13.316;2022-08-07T12:37:09;94650.28;;;21.25;61.80
21588;BME280;10956;48.878;13.316;2022-08-07T12:39:36;94657.78;;;21.40;62.84
21588;BME280;10956;48.878;13.316;2022-08-07T12:42:04;94659.78;;;21.52;63.14
21588;BME280;10956;48.878;13.316;2022-08-07T12:44:33;94665.41;;;21.59;62.63
21588;BME280;10956;48.878;13.316;2022-08-07T12:52:53;94658.34;;;21.54;61.99
21588;BME280;10956;48.878;13.316;2022-08-07T12:55:27;94662.41;;;21.60;61.89
21588;BME280;10956;48.878;13.316;2022-08-07T12:57:57;94652.34;;;21.57;61.40
21588;BME280;10956;48.878;13.316;2022-08-07T13:00:30;94654.56;;;21.55;60.98
21588;BME280;10956;48.878;13.316;2022-08-07T13:11:28;94644.94;;;21.54;60.93
21588;BME280;10956;48.878;13.316;2022-08-07T13:14:23;94640.03;;;21.56;60.70
21588;BME280;10956;48.878;13.316;2022-08-07T13:17:11;94639.38;;;21.59;61.15
21588;BME280;10956;48.878;13.316;2022-08-07T13:22:23;94635.88;;;21.68;60.41
21588;BME280;10956;48.878;13.316;2022-08-07T13:24:59;94638.69;;;21.71;60.27
21588;BME280;10956;48.878;13.316;2022-08-07T13:27:34;94635.34;;;21.74;60.00
21588;BME280;10956;48.878;13.316;2022-08-07T13:30:04;94636.94;;;21.75;60.10
21588;BME280;10956;48.878;13.316;2022-08-07T13:33:08;94622.91;;;21.70;59.54
21588;BME280;10956;48.878;13.316;2022-08-07T13:35:41;94623.06;;;21.73;59.63
21588;BME280;10956;48.878;13.316;2022-08-07T13:38:28;94620.06;;;21.75;60.20
21588;BME280;10956;48.878;13.316;2022-08-07T13:41:05;94626.94;;;21.84;59.87
21588;BME280;10956;48.878;13.316;2022-08-07T13:43:40;94621.88;;;21.83;58.79
21588;BME280;10956;48.878;13.316;2022-08-07T13:46:07;94625.03;;;21.85;58.40
21588;BME280;10956;48.878;13.316;2022-08-07T13:48:36;94619.66;;;21.85;58.57
21588;BME280;10956;48.878;13.316;2022-08-07T13:51:02;94615.22;;;21.89;58.71
21588;BME280;10956;48.878;13.316;2022-08-07T13:53:31;94616.94;;;21.93;58.97
21588;BME280;10956;48.878;13.316;2022-08-07T13:55:57;94612.59;;;22.01;59.08
21588;BME280;10956;48.878;13.316;2022-08-07T13:58:24;94614.47;;;22.09;58.53
21588;BME280;10956;48.878;13.316;2022-08-07T14:01:12;94604.19;;;22.11;57.75
21588;BME280;10956;48.878;13.316;2022-08-07T14:03:39;94611.38;;;22.19;57.84
21588;BME280;10956;48.878;13.316;2022-08-07T14:06:06;94614.84;;;22.20;58.73
21588;BME280;10956;48.878;13.316;2022-08-07T14:08:38;94606.03;;;22.19;58.76
21588;BME280;10956;48.878;13.316;2022-08-07T14:11:11;94605.81;;;22.24;58.62
21588;BME280;10956;48.878;13.316;2022-08-07T14:13:39;94596.66;;;22.26;58.62
21588;BME280;10956;48.878;13.316;2022-08-07T14:16:11;94596.66;;;22.26;58.15
21588;BME280;10956;48.878;13.316;2022-08-07T14:18:38;94596.00;;;22.29;58.33
21588;BME280;10956;48.878;13.316;2022-08-07T14:21:17;94597.56;;;22.30;58.34
21588;BME280;10956;48.878;13.316;2022-08-07T14:23:56;94595.34;;;22.32;58.36
21588;BME280;10956;48.878;13.316;2022-08-07T14:26:28;94596.13;;;22.32;57.78
21588;BME280;10956;48.878;13.316;2022-08-07T14:28:56;94590.63;;;22.29;57.53
21588;BME280;10956;48.878;13.316;2022-08-07T14:31:23;94594.44;;;22.28;57.35
21588;BME280;10956;48.878;13.316;2022-08-07T14:33:51;94585.91;;;22.26;57.50
21588;BME280;10956;48.878;13.316;2022-08-07T14:36:18;94599.00;;;22.27;57.39
21588;BME280;10956;48.878;13.316;2022-08-07T14:38:45;94593.63;;;22.27;57.23
21588;BME280;10956;48.878;13.316;2022-08-07T14:41:17;94598.22;;;22.27;56.85
21588;BME280;10956;48.878;13.316;2022-08-07T14:43:47;94597.25;;;22.31;56.67
21588;BME280;10956;48.878;13.316;2022-08-07T14:46:15;94595.78;;;22.34;56.72
21588;BME280;10956;48.878;13.316;2022-08-07T14:48:46;94596.00;;;22.29;56.32
21588;BME280;10956;48.878;13.316;2022-08-07T14:51:21;94597.56;;;22.30;56.35
21588;BME280;10956;48.878;13.316;2022-08-07T14:53:49;94604.50;;;22.31;56.55
21588;BME280;10956;48.878;13.316;2022-08-07T14:56:19;94597.56;;;22.30;56.53
21588;BME280;10956;48.878;13.316;2022-08-07T14:58:50;94596.13;;;22.32;56.73
21588;BME280;10956;48.878;13.316;2022-08-07T15:01:17;94584.59;;;22.32;56.25
21588;BME280;10956;48.878;13.316;2022-08-07T15:03:43;94585.63;;;22.39;56.09
21588;BME280;10956;48.878;13.316;2022-08-07T15:06:11;94591.84;;;22.52;56.09
21588;BME280;10956;48.878;13.316;2022-08-07T15:08:40;94590.97;;;22.60;56.60
21588;BME280;10956;48.878;13.316;2022-08-07T15:11:18;94589.63;;;22.66;56.63
21588;BME280;10956;48.878;13.316;2022-08-07T15:13:52;94586.75;;;22.71;56.88